Sydney, Nova Scotia

2:25 AM ADT on September 02, 2014 (GMT -0300)
Sydney | Change Station
CLOSE
Current Station
Airport
Location: Sydney,
Elevation: 203 ft
Nearby Weather Stations

Elev 203 ft 46.17 °N, 60.05 °W | Updated 10 minutes ago

Overcast
Overcast
61 °F
Feels Like 61 °F
N
5
Wind Variable Wind from NNW

Today is forecast to be nearly the same temperature as yesterday.

Today
High -- | Low -- °F
--% Chance of Precip.
Yesterday
High -- | Low -- °F
Precip. -- in
6:21 AM 7:36 PM
Waxing Crescent, 48% visible
Pressure 30.02 in
Visibility 5.0 miles
Clouds Overcast 400 ft
Dew Point 59 °F
Humidity 94%
Rainfall 0.00 in
Snow Depth Not available.
UV 0 out of 12
Pollen Not available.
Air Quality Not available.
Flu Activity Not available.
SPECI CYQY 020515Z 34004KT 5SM BR OVC004 16/15 A3001 RMK ST8 SLP164

More Conditions Fewer Conditions

Pressure 30.02 in
Visibility 5.0 miles
Clouds Overcast 400 ft
Dew Point 59 °F
Humidity 94%
Rainfall 0.00 in
Snow Depth Not available.
UV 0 out of 12
Pollen Not available.
Air Quality Not available.
Flu Activity Not available.
SPECI CYQY 020515Z 34004KT 5SM BR OVC004 16/15 A3001 RMK ST8 SLP164

More Conditions Fewer Conditions

10-Day Weather Forecast

Almanac

Astronomy

Sep. 02, 2014 Rise Set
Actual Time 6:21 AM ADT 7:36 PM ADT
Civil Twilight 5:50 AM ADT 8:07 PM ADT
Nautical Twilight 5:13 AM ADT 8:44 PM ADT
Astronomical Twilight 4:33 AM ADT 9:24 PM ADT
Moon 2:25 PM ADT No Moon Set
Length of Visible Light 14h 16m
Length of Day
13h 15m
Tomorrow will be 3m 9s shorter.
Waxing Crescent, 48% of the Moon is Illuminated
Today
Waxing Crescent
Sep 2
First Quarter
Sep 8
Full
Sep 15
Last Quarter
Sep 24
New

Yesterday's Extremes

Country Highs Country Lows

Community

WunderPhotos

Upload Photos

1,749,575 photos uploaded!

WunderBlogs® & News

Nearby

Snow Depth

Not available.

Earthquake Activity

City Distance Mag. Time & Date
No recent earthquake activity has been reported nearby.
Minimum magnitude displayed is 2.5.

Coastal Water Temperatures

Place Temperature
No Stations Reporting

Nearby Weather Stations